createdAt,value
2023-02-15T00:00:39.773Z,0.94
2023-02-15T00:03:08.989Z,0.93
2023-02-15T00:05:36.865Z,0.97
2023-02-15T00:08:04.842Z,0.94
2023-02-15T00:10:32.712Z,0.85
2023-02-15T00:13:02.126Z,0.93
2023-02-15T00:15:29.970Z,0.94
2023-02-15T00:17:59.689Z,0.95
2023-02-15T00:20:29.321Z,0.91
2023-02-15T00:22:57.196Z,0.90
2023-02-15T00:25:25.317Z,0.93
2023-02-15T00:27:53.217Z,0.89
2023-02-15T00:30:21.107Z,0.91
2023-02-15T00:32:50.048Z,0.91
2023-02-15T00:35:18.227Z,0.91
2023-02-15T00:37:47.488Z,0.91
2023-02-15T00:40:15.500Z,0.92
2023-02-15T00:42:43.606Z,0.93
2023-02-15T00:45:11.708Z,0.92
2023-02-15T00:47:39.643Z,0.89
2023-02-15T00:50:08.660Z,0.91
2023-02-15T00:52:36.561Z,0.88
2023-02-15T00:55:06.342Z,0.89
2023-02-15T00:57:34.187Z,0.86
2023-02-15T01:00:01.999Z,0.85
2023-02-15T01:02:29.872Z,0.82
2023-02-15T01:04:57.676Z,0.84
2023-02-15T01:07:25.586Z,0.89
2023-02-15T01:09:53.466Z,0.87
2023-02-15T01:12:22.708Z,0.80
2023-02-15T01:14:50.560Z,0.90
2023-02-15T01:17:18.444Z,0.89
2023-02-15T01:19:46.417Z,0.90
2023-02-15T01:22:14.283Z,0.91
2023-02-15T01:24:42.183Z,0.87
2023-02-15T01:27:10.012Z,0.88
2023-02-15T01:29:39.222Z,0.89
2023-02-15T01:32:07.142Z,0.85
2023-02-15T01:34:35.360Z,0.89
2023-02-15T01:37:03.552Z,0.92
2023-02-15T01:39:31.370Z,0.85
2023-02-15T01:41:59.191Z,0.85
2023-02-15T01:44:51.484Z,0.84
2023-02-15T01:47:24.269Z,0.86
2023-02-15T01:50:00.677Z,0.84
2023-02-15T01:52:28.684Z,0.69
2023-02-15T01:54:56.623Z,0.75
2023-02-15T01:57:28.774Z,0.70
2023-02-15T02:00:03.427Z,0.74
2023-02-15T02:02:31.546Z,0.73
2023-02-15T02:05:04.167Z,0.69
2023-02-15T02:07:35.382Z,0.72
2023-02-15T02:10:04.082Z,0.74
2023-02-15T02:12:32.196Z,0.71
2023-02-15T02:15:01.714Z,0.71
2023-02-15T02:17:39.885Z,0.65
2023-02-15T02:20:28.819Z,0.67
2023-02-15T02:23:20.270Z,0.68
2023-02-15T02:26:26.293Z,0.70
2023-02-15T02:29:29.610Z,0.78
2023-02-15T02:32:32.454Z,0.80
2023-02-15T02:35:07.714Z,0.81
2023-02-15T02:37:44.777Z,0.78
2023-02-15T02:40:18.725Z,0.82
2023-02-15T02:42:53.408Z,0.82
2023-02-15T02:45:30.505Z,0.80
2023-02-15T02:48:03.505Z,0.84
2023-02-15T02:50:33.002Z,0.82
2023-02-15T02:53:01.501Z,0.90
2023-02-15T02:55:33.460Z,0.91
2023-02-15T02:58:07.690Z,0.94
2023-02-15T03:00:41.972Z,0.92
2023-02-15T03:03:16.109Z,0.93
2023-02-15T03:05:49.592Z,0.97
2023-02-15T03:08:22.887Z,0.90
2023-02-15T03:10:53.728Z,0.99
2023-02-15T03:13:22.231Z,1.06
2023-02-15T03:16:09.583Z,1.07
2023-02-15T03:18:43.107Z,1.11
2023-02-15T03:21:23.216Z,1.09
2023-02-15T03:23:55.224Z,1.11
2023-02-15T03:26:25.133Z,1.12
2023-02-15T03:28:57.226Z,1.13
2023-02-15T03:31:29.967Z,1.13
2023-02-15T03:34:03.460Z,1.19
2023-02-15T03:36:40.791Z,1.13
2023-02-15T03:39:15.745Z,1.14
2023-02-15T03:41:50.541Z,1.12
2023-02-15T03:44:25.792Z,1.13
2023-02-15T03:46:58.617Z,1.11
2023-02-15T03:49:31.755Z,1.13
2023-02-15T03:52:02.657Z,1.16
2023-02-15T03:54:44.267Z,1.12
2023-02-15T03:57:33.753Z,1.18
2023-02-15T04:00:21.476Z,1.18
2023-02-15T04:03:07.916Z,1.23
2023-02-15T04:05:36.371Z,1.21
2023-02-15T04:08:06.211Z,1.23
2023-02-15T04:10:51.653Z,1.26
2023-02-15T04:13:19.496Z,1.23
2023-02-15T04:16:05.552Z,1.17
2023-02-15T04:18:53.043Z,1.28
2023-02-15T04:21:39.348Z,1.29
2023-02-15T04:24:26.294Z,1.22
2023-02-15T04:26:54.623Z,1.29
2023-02-15T04:29:23.080Z,1.28
2023-02-15T04:31:51.656Z,1.28
2023-02-15T04:34:19.751Z,1.22
2023-02-15T04:36:47.698Z,1.24
2023-02-15T04:39:18.014Z,1.22
2023-02-15T04:41:46.633Z,1.32
2023-02-15T04:44:14.677Z,1.27
2023-02-15T04:46:42.568Z,1.35
2023-02-15T04:49:10.885Z,1.29
2023-02-15T04:51:39.202Z,1.34
2023-02-15T04:54:07.142Z,1.32
2023-02-15T04:56:38.764Z,1.33
2023-02-15T04:59:07.150Z,1.31
2023-02-15T05:01:35.074Z,1.30
2023-02-15T05:04:03.680Z,1.33
2023-02-15T05:06:31.837Z,1.33
2023-02-15T05:09:00.443Z,1.25
2023-02-15T05:11:28.555Z,1.31
2023-02-15T05:13:57.825Z,1.32
2023-02-15T05:16:26.577Z,1.39
2023-02-15T05:18:54.424Z,1.33
2023-02-15T05:21:22.652Z,1.36
2023-02-15T05:23:50.605Z,1.42
2023-02-15T05:26:38.092Z,1.40
2023-02-15T05:29:07.678Z,1.44
2023-02-15T05:31:36.208Z,1.41
2023-02-15T05:34:04.582Z,1.34
2023-02-15T05:36:32.408Z,1.39
2023-02-15T05:39:00.439Z,1.41
2023-02-15T05:41:28.270Z,1.39
2023-02-15T05:43:57.380Z,1.51
2023-02-15T05:46:26.711Z,1.45
2023-02-15T05:48:54.570Z,1.55
2023-02-15T05:51:22.413Z,1.51
2023-02-15T05:53:50.329Z,1.57
2023-02-15T05:56:18.406Z,1.61
2023-02-15T05:58:46.507Z,1.51
2023-02-15T06:01:16.677Z,1.55
2023-02-15T06:03:46.362Z,1.62
2023-02-15T06:06:14.657Z,1.60
2023-02-15T06:08:42.925Z,1.65
2023-02-15T06:11:11.212Z,1.52
2023-02-15T06:13:39.306Z,1.54
2023-02-15T06:16:07.766Z,1.62
2023-02-15T06:18:35.857Z,1.67
2023-02-15T06:21:05.411Z,1.65
2023-02-15T06:23:33.330Z,1.62
2023-02-15T06:26:01.601Z,1.67
2023-02-15T06:28:29.612Z,1.68
2023-02-15T06:30:57.559Z,1.63
2023-02-15T06:33:26.190Z,1.67
2023-02-15T06:35:54.038Z,1.70
2023-02-15T06:38:23.258Z,1.74
2023-02-15T06:40:51.074Z,1.74
2023-02-15T06:43:18.959Z,1.73
2023-02-15T06:45:47.162Z,1.74
2023-02-15T06:48:15.344Z,1.77
2023-02-15T06:50:43.268Z,1.87
2023-02-15T06:53:11.333Z,1.84
2023-02-15T06:55:40.575Z,1.85
2023-02-15T06:58:08.407Z,1.81
2023-02-15T07:00:36.272Z,1.82
2023-02-15T07:03:04.175Z,1.81
2023-02-15T07:05:35.945Z,1.88
2023-02-15T07:08:03.970Z,1.99
2023-02-15T07:10:32.362Z,2.13
2023-02-15T07:13:00.667Z,2.08
2023-02-15T07:15:28.525Z,2.11
2023-02-15T07:17:56.430Z,2.15
2023-02-15T07:20:25.732Z,2.14
2023-02-15T07:22:54.331Z,2.30
2023-02-15T07:25:22.618Z,2.18
2023-02-15T07:27:50.509Z,2.38
2023-02-15T07:30:21.035Z,2.52
2023-02-15T07:33:11.400Z,2.39
2023-02-15T07:35:39.260Z,2.36
2023-02-15T07:38:07.215Z,2.33
2023-02-15T07:40:35.066Z,2.35
2023-02-15T07:43:02.939Z,2.51
2023-02-15T07:45:32.780Z,2.56
2023-02-15T07:48:02.371Z,2.57
2023-02-15T07:50:30.383Z,2.47
2023-02-15T07:52:58.420Z,2.41
2023-02-15T07:55:26.694Z,2.51
2023-02-15T07:57:55.059Z,2.59
2023-02-15T08:00:25.839Z,2.61
2023-02-15T08:03:10.683Z,2.56
2023-02-15T08:05:39.108Z,2.54
2023-02-15T08:08:07.340Z,2.57
2023-02-15T08:10:52.621Z,2.56
2023-02-15T08:13:20.485Z,2.47
2023-02-15T08:15:52.413Z,2.28
2023-02-15T08:18:21.698Z,2.41
2023-02-15T08:20:51.966Z,2.59
2023-02-15T08:23:23.441Z,2.63
2023-02-15T08:25:51.268Z,2.65
2023-02-15T08:28:19.146Z,2.67
2023-02-15T08:30:47.219Z,2.54
2023-02-15T08:33:15.226Z,2.50
2023-02-15T08:35:44.472Z,2.54
2023-02-15T08:38:12.353Z,2.53
2023-02-15T08:40:40.267Z,2.61
2023-02-15T08:43:08.275Z,2.75
2023-02-15T08:45:36.263Z,2.83
2023-02-15T08:48:04.209Z,2.97
2023-02-15T08:50:32.104Z,2.93
2023-02-15T08:53:01.332Z,2.83
2023-02-15T08:55:29.158Z,2.96
2023-02-15T08:57:57.138Z,3.03
2023-02-15T09:00:26.140Z,3.08
2023-02-15T09:02:54.305Z,3.21
2023-02-15T09:05:22.246Z,3.21
2023-02-15T09:07:50.114Z,3.26
2023-02-15T09:10:19.747Z,3.44
2023-02-15T09:12:47.739Z,3.23
2023-02-15T09:15:15.864Z,3.19
2023-02-15T09:17:43.786Z,3.25
2023-02-15T09:20:12.082Z,3.50
2023-02-15T09:22:39.925Z,3.53
2023-02-15T09:25:08.189Z,3.54
2023-02-15T09:27:37.820Z,3.46
2023-02-15T09:30:06.380Z,3.46
2023-02-15T09:32:34.309Z,3.38
2023-02-15T09:35:02.222Z,3.33
2023-02-15T09:37:30.131Z,3.48
2023-02-15T09:40:00.795Z,3.51
2023-02-15T09:43:02.296Z,3.40
2023-02-15T09:45:59.870Z,3.44
2023-02-15T09:48:40.993Z,3.55
2023-02-15T09:51:30.646Z,3.76
2023-02-15T09:54:12.189Z,3.90
2023-02-15T09:56:44.296Z,3.83
2023-02-15T09:59:21.615Z,3.96
2023-02-15T10:02:04.879Z,3.95
2023-02-15T10:04:48.303Z,3.97
2023-02-15T10:07:35.630Z,3.83
2023-02-15T10:10:22.337Z,4.24
2023-02-15T10:13:11.154Z,4.35
2023-02-15T10:15:59.698Z,4.11
2023-02-15T10:18:46.072Z,4.06
2023-02-15T10:21:24.223Z,3.93
2023-02-15T10:24:09.793Z,3.79
2023-02-15T10:26:45.201Z,3.89
2023-02-15T10:29:30.154Z,3.79
2023-02-15T10:32:07.950Z,3.99
2023-02-15T10:34:41.149Z,4.28
2023-02-15T10:37:30.446Z,4.04
2023-02-15T10:40:09.284Z,4.13
2023-02-15T10:42:52.366Z,4.19
2023-02-15T10:45:31.140Z,4.18
2023-02-15T10:48:18.703Z,4.18
2023-02-15T10:50:51.605Z,4.30
2023-02-15T10:53:31.401Z,4.27
2023-02-15T10:56:07.347Z,4.22
2023-02-15T10:58:49.622Z,4.89
2023-02-15T11:01:24.439Z,5.35
2023-02-15T11:04:13.709Z,5.38
2023-02-15T11:06:49.343Z,5.67
2023-02-15T11:09:22.843Z,5.99
2023-02-15T11:11:54.132Z,5.99
2023-02-15T11:14:40.998Z,5.75
2023-02-15T11:17:14.392Z,5.59
2023-02-15T11:19:49.200Z,5.55
2023-02-15T11:22:18.164Z,5.53
2023-02-15T11:24:49.479Z,5.66
2023-02-15T11:27:23.716Z,5.85
2023-02-15T11:30:00.205Z,5.88
2023-02-15T11:32:30.480Z,5.69
2023-02-15T11:35:02.947Z,5.66
2023-02-15T11:37:38.079Z,6.03
2023-02-15T11:40:23.256Z,6.25
2023-02-15T11:42:53.473Z,6.03
2023-02-15T11:45:27.622Z,6.02
2023-02-15T11:47:55.963Z,6.03
2023-02-15T11:50:26.379Z,6.49
2023-02-15T11:52:57.949Z,6.50
2023-02-15T11:55:29.567Z,7.05
2023-02-15T11:58:03.751Z,7.09
2023-02-15T12:00:38.383Z,6.92
2023-02-15T12:03:15.239Z,6.87
2023-02-15T12:05:46.586Z,7.33
2023-02-15T12:08:24.167Z,6.81
2023-02-15T12:11:03.636Z,7.12
2023-02-15T12:13:32.172Z,6.83
2023-02-15T12:16:09.331Z,7.05
2023-02-15T12:18:41.258Z,7.55
2023-02-15T12:21:12.894Z,7.14
2023-02-15T12:23:46.100Z,6.78
2023-02-15T12:26:15.496Z,7.26
2023-02-15T12:28:46.835Z,7.15
2023-02-15T12:31:23.701Z,7.04
2023-02-15T12:33:55.105Z,7.00
2023-02-15T12:36:27.771Z,6.97
2023-02-15T12:39:07.282Z,7.00
2023-02-15T12:41:36.512Z,7.66
2023-02-15T12:44:19.534Z,8.28
2023-02-15T12:46:59.179Z,8.35
2023-02-15T12:49:28.221Z,8.04
2023-02-15T12:51:59.010Z,8.14
2023-02-15T12:54:36.914Z,7.69
2023-02-15T12:57:22.693Z,8.23
2023-02-15T12:59:52.865Z,8.26
2023-02-15T13:02:26.817Z,8.35
2023-02-15T13:04:55.995Z,8.25
2023-02-15T13:07:24.453Z,8.17
2023-02-15T13:09:52.583Z,8.20
2023-02-15T13:12:27.503Z,8.26
2023-02-15T13:14:57.538Z,8.25
2023-02-15T13:17:30.750Z,7.79
2023-02-15T13:20:02.900Z,8.01
2023-02-15T13:22:40.299Z,8.07
2023-02-15T13:25:15.316Z,7.84
2023-02-15T13:27:47.506Z,8.21
2023-02-15T13:30:27.087Z,8.39
2023-02-15T13:32:58.602Z,8.04
2023-02-15T13:35:31.393Z,7.85
2023-02-15T13:38:13.336Z,8.04
2023-02-15T13:40:50.870Z,8.12
2023-02-15T13:43:36.318Z,8.47
2023-02-15T13:46:18.460Z,8.73
2023-02-15T13:48:54.169Z,8.80
2023-02-15T13:51:27.312Z,9.03
2023-02-15T13:54:13.942Z,8.63
2023-02-15T13:56:53.675Z,8.79
2023-02-15T13:59:46.755Z,8.58
2023-02-15T14:02:43.740Z,8.26
2023-02-15T14:05:30.235Z,8.31
2023-02-15T14:08:08.540Z,7.83
2023-02-15T14:10:46.183Z,8.10
2023-02-15T14:13:47.425Z,8.31
2023-02-15T14:16:23.154Z,7.73
2023-02-15T14:18:56.687Z,7.08
2023-02-15T14:21:32.550Z,6.60
2023-02-15T14:24:17.262Z,6.61
2023-02-15T14:26:52.816Z,6.69
2023-02-15T14:29:31.433Z,6.48
2023-02-15T14:32:06.496Z,6.64
2023-02-15T14:34:52.471Z,6.96
2023-02-15T14:37:26.919Z,6.97
2023-02-15T14:40:17.916Z,6.70
2023-02-15T14:42:50.663Z,6.33
2023-02-15T14:45:24.945Z,6.56
2023-02-15T14:48:06.274Z,6.52
2023-02-15T14:50:46.212Z,6.50
2023-02-15T14:53:36.962Z,6.47
2023-02-15T14:56:18.483Z,6.42
2023-02-15T14:58:59.904Z,6.28
2023-02-15T15:01:29.924Z,6.38
2023-02-15T15:04:02.227Z,6.78
2023-02-15T15:06:32.709Z,6.57
2023-02-15T15:09:03.407Z,6.24
2023-02-15T15:11:46.376Z,5.95
2023-02-15T15:14:42.379Z,5.74
2023-02-15T15:17:14.024Z,5.66
2023-02-15T15:20:13.990Z,5.45
2023-02-15T15:22:43.628Z,5.22
2023-02-15T15:25:34.029Z,5.04
2023-02-15T15:28:02.001Z,4.95
2023-02-15T15:31:07.039Z,4.87
2023-02-15T15:34:07.743Z,4.62
2023-02-15T15:37:02.366Z,4.38
2023-02-15T15:39:59.272Z,4.32
2023-02-15T15:42:40.146Z,4.20
2023-02-15T15:45:33.997Z,4.18
2023-02-15T15:48:17.702Z,3.91
2023-02-15T15:50:45.795Z,3.89
2023-02-15T15:53:22.722Z,3.87
2023-02-15T15:55:55.156Z,3.71
2023-02-15T15:58:23.837Z,3.64
2023-02-15T16:00:55.667Z,3.57
2023-02-15T16:03:25.488Z,3.64
2023-02-15T16:05:56.336Z,3.59
2023-02-15T16:08:34.053Z,3.58
2023-02-15T16:11:13.753Z,3.42
2023-02-15T16:13:43.001Z,3.43
2023-02-15T16:16:13.744Z,3.35
2023-02-15T16:18:43.575Z,3.21
2023-02-15T16:21:19.391Z,3.24
2023-02-15T16:24:10.665Z,3.20
2023-02-15T16:27:03.112Z,3.13
2023-02-15T16:29:33.118Z,3.13
2023-02-15T16:32:02.780Z,3.03
2023-02-15T16:34:33.522Z,3.01
2023-02-15T16:37:22.817Z,2.94
2023-02-15T16:39:52.685Z,2.84
2023-02-15T16:42:20.892Z,2.97
2023-02-15T16:44:53.492Z,2.97
2023-02-15T16:47:26.253Z,2.99
2023-02-15T16:49:56.800Z,2.92
2023-02-15T16:52:27.276Z,2.94
2023-02-15T16:55:00.139Z,2.90
2023-02-15T16:57:30.924Z,2.82
2023-02-15T17:00:04.290Z,2.77
2023-02-15T17:02:55.494Z,2.69
2023-02-15T17:05:22.660Z,2.63
2023-02-15T17:08:09.152Z,2.65
2023-02-15T17:10:42.616Z,2.68
2023-02-15T17:13:13.392Z,2.66
2023-02-15T17:15:42.889Z,2.61
2023-02-15T17:18:17.493Z,2.57
2023-02-15T17:20:46.767Z,2.62
2023-02-15T17:23:27.948Z,2.62
2023-02-15T17:25:57.949Z,2.55
2023-02-15T17:28:27.575Z,2.47
2023-02-15T17:30:57.034Z,2.54
2023-02-15T17:33:30.125Z,2.37
2023-02-15T17:36:07.245Z,2.41
2023-02-15T17:38:35.319Z,2.41
2023-02-15T17:41:05.001Z,2.39
2023-02-15T17:43:33.404Z,2.41
2023-02-15T17:46:01.555Z,2.37
2023-02-15T17:48:33.916Z,2.33
2023-02-15T17:51:03.978Z,2.31
2023-02-15T17:53:32.565Z,2.26
2023-02-15T17:55:59.698Z,2.26
2023-02-15T17:58:29.120Z,2.24
2023-02-15T18:01:17.233Z,2.30
2023-02-15T18:04:05.242Z,2.20
2023-02-15T18:06:53.606Z,2.26
2023-02-15T18:09:41.175Z,2.25
2023-02-15T18:12:20.637Z,2.32
2023-02-15T18:14:50.352Z,2.33
2023-02-15T18:17:19.262Z,2.34
2023-02-15T18:19:47.950Z,2.33
2023-02-15T18:22:18.714Z,2.29
2023-02-15T18:24:48.163Z,2.23
2023-02-15T18:27:17.406Z,2.30
2023-02-15T18:29:45.867Z,2.25
2023-02-15T18:32:20.957Z,2.10
2023-02-15T18:34:50.475Z,2.21
2023-02-15T18:37:21.375Z,2.26
2023-02-15T18:39:54.353Z,2.29
2023-02-15T18:42:28.609Z,2.26
2023-02-15T18:44:58.165Z,2.32
2023-02-15T18:47:28.584Z,2.36
2023-02-15T18:49:56.742Z,2.41
2023-02-15T18:52:27.561Z,2.45
2023-02-15T18:55:04.422Z,2.29
2023-02-15T18:57:33.805Z,2.43
2023-02-15T19:00:01.891Z,2.35
2023-02-15T19:02:31.314Z,2.38
2023-02-15T19:04:59.178Z,2.42
2023-02-15T19:07:29.838Z,2.41
2023-02-15T19:10:00.349Z,2.38
2023-02-15T19:12:29.636Z,2.42
2023-02-15T19:14:57.762Z,2.49
2023-02-15T19:17:25.795Z,2.47
2023-02-15T19:19:55.122Z,2.53
2023-02-15T19:22:27.434Z,2.52
2023-02-15T19:24:57.012Z,2.59
2023-02-15T19:27:28.694Z,2.48
2023-02-15T19:29:59.520Z,2.51
2023-02-15T19:32:27.913Z,2.47
2023-02-15T19:34:57.529Z,2.51
2023-02-15T19:37:34.280Z,2.55
2023-02-15T19:40:02.491Z,2.52
2023-02-15T19:42:32.239Z,2.56
2023-02-15T19:45:00.108Z,2.60
2023-02-15T19:47:29.070Z,2.59
2023-02-15T19:50:03.605Z,2.60
2023-02-15T19:52:31.629Z,2.66
2023-02-15T19:54:59.531Z,2.72
2023-02-15T19:57:28.963Z,2.75
2023-02-15T19:59:56.849Z,2.77
2023-02-15T20:02:24.698Z,2.76
2023-02-15T20:04:52.694Z,2.61
2023-02-15T20:07:26.782Z,2.65
2023-02-15T20:09:54.897Z,2.59
2023-02-15T20:12:25.009Z,2.57
2023-02-15T20:14:53.338Z,2.55
2023-02-15T20:17:21.244Z,2.61
2023-02-15T20:19:49.639Z,2.60
2023-02-15T20:22:25.446Z,2.60
2023-02-15T20:24:55.631Z,2.64
2023-02-15T20:27:24.284Z,2.63
2023-02-15T20:29:52.320Z,2.65
2023-02-15T20:32:20.423Z,2.66
2023-02-15T20:34:48.337Z,2.58
2023-02-15T20:37:26.312Z,2.56
2023-02-15T20:39:54.310Z,2.46
2023-02-15T20:42:22.436Z,2.22
2023-02-15T20:44:50.401Z,1.99
2023-02-15T20:47:18.473Z,2.02
2023-02-15T20:49:46.343Z,1.90
2023-02-15T20:52:20.458Z,1.76
2023-02-15T20:54:49.808Z,1.61
2023-02-15T20:57:17.772Z,1.50
2023-02-15T20:59:46.086Z,1.48
2023-02-15T21:02:18.922Z,1.50
2023-02-15T21:04:47.154Z,1.30
2023-02-15T21:07:16.670Z,1.23
2023-02-15T21:09:44.536Z,1.13
2023-02-15T21:12:16.533Z,1.08
2023-02-15T21:14:45.026Z,0.97
2023-02-15T21:17:13.683Z,0.93
2023-02-15T21:19:41.675Z,0.93
2023-02-15T21:22:13.063Z,1.03
2023-02-15T21:24:45.569Z,0.84
2023-02-15T21:27:15.029Z,0.79
2023-02-15T21:29:42.872Z,0.72
2023-02-15T21:32:11.535Z,0.65
2023-02-15T21:34:40.007Z,0.65
2023-02-15T21:37:27.409Z,0.57
2023-02-15T21:39:55.354Z,0.51
2023-02-15T21:42:42.216Z,0.45
2023-02-15T21:45:33.712Z,0.40
2023-02-15T21:48:01.731Z,0.46
2023-02-15T21:50:46.996Z,0.44
2023-02-15T21:53:21.267Z,0.48
2023-02-15T21:55:49.823Z,0.37
2023-02-15T21:58:21.732Z,0.39
2023-02-15T22:00:50.439Z,0.41
2023-02-15T22:03:18.417Z,0.36
2023-02-15T22:05:46.432Z,0.42
2023-02-15T22:08:15.313Z,0.38
2023-02-15T22:10:44.310Z,0.39
2023-02-15T22:13:16.280Z,0.40
2023-02-15T22:15:47.668Z,0.36
2023-02-15T22:18:25.007Z,0.37
2023-02-15T22:20:53.729Z,0.33
2023-02-15T22:23:21.835Z,0.38
2023-02-15T22:25:55.353Z,0.42
2023-02-15T22:28:28.465Z,0.32
2023-02-15T22:30:58.650Z,0.29
2023-02-15T22:33:28.606Z,0.24
2023-02-15T22:35:56.923Z,0.16
2023-02-15T22:38:25.165Z,0.19
2023-02-15T22:40:56.591Z,0.23
2023-02-15T22:43:34.517Z,0.20
2023-02-15T22:46:06.541Z,0.20
2023-02-15T22:48:35.426Z,0.14
2023-02-15T22:51:03.694Z,0.13
2023-02-15T22:53:31.650Z,0.21
2023-02-15T22:56:04.547Z,0.21
2023-02-15T22:58:32.452Z,0.21
2023-02-15T23:01:03.711Z,0.18
2023-02-15T23:03:33.494Z,0.16
2023-02-15T23:06:01.524Z,0.16
2023-02-15T23:08:29.345Z,0.23
2023-02-15T23:35:22.012Z,0.23
2023-02-15T23:37:49.891Z,0.26
2023-02-15T23:40:36.561Z,0.30
2023-02-15T23:43:04.612Z,0.37
2023-02-15T23:45:36.268Z,0.34
2023-02-15T23:48:21.898Z,0.37
2023-02-15T23:50:51.155Z,0.36
2023-02-15T23:53:18.987Z,0.28
2023-02-15T23:55:47.089Z,0.32
2023-02-15T23:58:18.483Z,0.30
